»·PEaware :: N378L KSNA-KBUR

N378L :: KSNA-KBUR

FLIGHT INFORMATION

Flight Status: Arrived
Operator: Privately registered:
United States
More flights under this callsign
Pilot: Wilver N. (25840)
Aircraft: CESSNA 172 SKYHAWK
(C172)
More flights by this aircraft type
Origin: KSNA John Wayne-Orange Co
United States
Destination: KBUR Bob Hope-Burbank
United States
More flights between these airports :: More routes between these airports
Route: SLI V23 POPPR SMO125 SMO SMO311 SILEX
File this flight plan on PilotEdge
Remarks:
Altitude:
(Current/Filed)
4,000ft
Speed:
(Current/Filed)
120kts
Departed: 11-Jan-21 05:24 PM
Arrived: 11-Jan-21 06:08 PM
Distance/Time
Traveled:
39nm/0:44
Distance/Time
To Go:
Arrived

Flight Plot

Page will automatically refresh every two minutes.


Map Options




Map Legend


Flown Route
Filed Route
Departure Airport
Arrival Airport
Navaid (VOR, NDB)
Fix

Horizontal Profiles

Position Reports

Time Latitude Longitude Heading Altitude Ground
Speed
11-Jan-21 16:57 33.676610 -117.870369 209 60ft 0kts
11-Jan-21 16:58 33.676610 -117.870369 209 60ft 0kts
11-Jan-21 16:59 33.676610 -117.870369 209 60ft 0kts
11-Jan-21 17:00 33.676610 -117.870369 209 60ft 0kts
11-Jan-21 17:01 33.676610 -117.870369 209 60ft 0kts
11-Jan-21 17:02 33.676610 -117.870369 209 60ft 0kts
11-Jan-21 17:03 33.676610 -117.870369 209 60ft 0kts
11-Jan-21 17:04 33.676610 -117.870369 209 60ft 0kts
11-Jan-21 17:05 33.676610 -117.870369 209 60ft 0kts
11-Jan-21 17:06 33.676610 -117.870369 209 60ft 0kts
11-Jan-21 17:07 33.676610 -117.870369 209 60ft 0kts
11-Jan-21 17:08 33.676610 -117.870369 209 60ft 0kts
11-Jan-21 17:09 33.676610 -117.870369 209 60ft 0kts
11-Jan-21 17:10 33.676610 -117.870369 209 60ft 0kts
11-Jan-21 17:11 33.676610 -117.870369 209 60ft 0kts
11-Jan-21 17:12 33.676610 -117.870369 209 60ft 0kts
11-Jan-21 17:13 33.676610 -117.870369 209 60ft 0kts
11-Jan-21 17:14 33.676610 -117.870369 209 60ft 0kts
11-Jan-21 17:15 33.676610 -117.870369 209 60ft 0kts
11-Jan-21 17:16 33.676610 -117.870369 209 60ft 0kts
11-Jan-21 17:17 33.676610 -117.870369 209 60ft 0kts
11-Jan-21 17:18 33.676610 -117.870369 209 60ft 0kts
11-Jan-21 17:19 33.676570 -117.870396 208 60ft 2kts
11-Jan-21 17:20 33.677232 -117.869349 27 60ft 13kts
11-Jan-21 17:21 33.680472 -117.867470 27 60ft 12kts
11-Jan-21 17:22 33.681243 -117.866546 106 60ft 0kts
11-Jan-21 17:23 33.678794 -117.866914 206 60ft 44kts
11-Jan-21 17:24 33.659651 -117.880161 223 832ft 84kts
11-Jan-21 17:25 33.646232 -117.904047 241 1733ft 88kts
11-Jan-21 17:26 33.633394 -117.933596 245 1916ft 105kts
11-Jan-21 17:27 33.629110 -117.965646 291 2223ft 115kts
11-Jan-21 17:28 33.644902 -118.000156 306 2604ft 119kts
11-Jan-21 17:29 33.669057 -118.027679 320 2955ft 119kts
11-Jan-21 17:30 33.691052 -118.054831 314 3559ft 107kts
11-Jan-21 17:31 33.720595 -118.066034 1 3818ft 126kts
11-Jan-21 17:32 33.755801 -118.061655 9 3813ft 118kts
11-Jan-21 17:33 33.785949 -118.055712 9 3816ft 105kts
11-Jan-21 17:34 33.814471 -118.050592 352 3813ft 103kts
11-Jan-21 17:35 33.825333 -118.078607 269 3817ft 102kts
11-Jan-21 17:36 33.807428 -118.097811 221 3815ft 101kts
11-Jan-21 17:37 33.809881 -118.129439 277 3817ft 101kts
11-Jan-21 17:38 33.813177 -118.163406 277 3817ft 102kts
11-Jan-21 17:39 33.819892 -118.197948 285 3818ft 112kts
11-Jan-21 17:40 33.829300 -118.234807 287 3817ft 116kts
11-Jan-21 17:41 33.839147 -118.271993 287 3816ft 116kts
11-Jan-21 17:42 33.852284 -118.307418 309 3804ft 117kts
11-Jan-21 17:43 33.880553 -118.326856 323 3789ft 117kts
11-Jan-21 17:44 33.905727 -118.351536 320 3789ft 116kts
11-Jan-21 17:45 33.930650 -118.376560 320 3789ft 116kts
11-Jan-21 17:46 33.955588 -118.401633 320 3789ft 116kts
11-Jan-21 17:47 33.980544 -118.426744 320 3789ft 116kts
11-Jan-21 17:48 34.005465 -118.451842 320 3789ft 116kts
11-Jan-21 17:49 34.032019 -118.474278 326 3789ft 116kts
11-Jan-21 17:50 34.058989 -118.496152 326 3787ft 113kts
11-Jan-21 17:51 34.079975 -118.518506 302 3788ft 96kts
11-Jan-21 17:52 34.094523 -118.546870 302 3789ft 101kts
11-Jan-21 17:53 34.109638 -118.576350 302 3799ft 106kts
11-Jan-21 17:54 34.125332 -118.606933 302 3798ft 108kts
11-Jan-21 17:55 34.141194 -118.637832 302 3798ft 108kts
11-Jan-21 17:56 34.157179 -118.668741 308 3797ft 108kts
11-Jan-21 17:57 34.185144 -118.679855 18 3796ft 108kts
11-Jan-21 17:58 34.201707 -118.650254 61 3683ft 110kts
11-Jan-21 17:59 34.205625 -118.614849 90 3495ft 98kts
11-Jan-21 18:00 34.205227 -118.580499 90 3171ft 111kts
11-Jan-21 18:01 34.204761 -118.542235 90 2798ft 108kts
11-Jan-21 18:03 34.204378 -118.508559 90 2799ft 98kts
11-Jan-21 18:04 34.203985 -118.474145 90 2691ft 109kts
11-Jan-21 18:05 34.203529 -118.436613 90 2300ft 95kts
11-Jan-21 18:06 34.198592 -118.404488 91 1920ft 101kts
11-Jan-21 18:07 34.197949 -118.376498 89 1065ft 77kts
11-Jan-21 18:08 34.198294 -118.360272 358 716ft 13kts
11-Jan-21 18:09 34.199000 -118.360114 357 719ft 5kts
11-Jan-21 18:10 34.199549 -118.360296 253 721ft 0kts
11-Jan-21 18:16 34.196706 -118.352868 179 698ft 0kts
11-Jan-21 18:18 34.196706 -118.352868 179 698ft 0kts
11-Jan-21 18:19 34.196706 -118.352868 179 698ft 0kts
11-Jan-21 18:19 34.196706 -118.352868 179 698ft 0kts
11-Jan-21 18:20 34.196706 -118.352868 179 698ft 0kts
11-Jan-21 18:21 34.196706 -118.352868 179 698ft 0kts

Navigation Log

Ident Type
Flight plan parsing failed, navigation log unavailable